Details From CYSB - Sudbury
To CYTS - Timmins
Flight Number -
Tags Generated
Created
Modified
Stats Distance 119 nm / 220 km
Max Altitude 0 ft / 0 m
Waypoints 2
Social Downloads 0
Likes 0
Share VATSIM

Download

Looking for another format? Having issues loading an existing format? Contact us
Advertisement - Login to hide

Notes

Generated

Route

CYSB CYTS

ID Type Via Altitude Latitude Longitude Leg Dist Tot Dist Heading (true) Name
O CYSB APT - 0 ft / 0 m 46.62917˚ -80.80750˚ - 0 nm - -
O CYTS APT - 0 ft / 0 m 48.56972˚ -81.38666˚ 118 nm 118 nm 349° / 348° -

Altitude Profile

Advertisement - Login to hide

CYSB

Details ICAO CYSB (YSB)
Name SUDBURY
Region Canada
Timezone America/Toronto (UTC-5.0)
Stats Elevation 1,141 ft / 348 m (AMSL)
Location 46.626320° -80.798194°
Runways 2
Magnetic Variation 10.305° W

METAR

CYSB 140800Z 34010KT 15SM SCT012 BKN200 M24/M27 A2967 RMK SC3CI3 SLP083

Decode

TAF

TAF CYSB 140740Z 1408/1420 34010KT 6SM IC FEW012 TEMPO 1408/1417 5SM -SN BKN012 FM141700 28008KT P6SM SCT020 RMK NXT FCST BY 141400Z

Decode

Departure Runways

ID Width Length Bearing (true) Bearing (mag) Surface Threshold Offset Overrun Length
04 200 ft / 61 m 6,574 ft / 2,004 m 28.46° 38.76° Asphalt 0 ft / 0 m 1,000 ft / 305 m
12 150 ft / 46 m 5,009 ft / 1,527 m 106.45° 116.75° Asphalt 0 ft / 0 m 600 ft / 183 m
22 200 ft / 61 m 6,574 ft / 2,004 m 208.47° 218.77° Asphalt 0 ft / 0 m 1,000 ft / 305 m
30 150 ft / 46 m 5,009 ft / 1,527 m 286.47° 296.77° Asphalt 0 ft / 0 m 400 ft / 122 m

CYTS

Details ICAO CYTS (YTS)
Name TIMMINS
Region Canada
Timezone America/Toronto (UTC-5.0)
Stats Elevation 967 ft / 295 m (AMSL)
Location 48.570140° -81.375487°
Runways 2
Magnetic Variation 10.495° W

METAR

CYTS 140800Z 31007KT 15SM -SN OVC014 M23/M26 A2972 RMK SC8 SLP100

Decode

TAF

TAF CYTS 140740Z 1408/1420 32010KT P6SM -SN OVC012 TEMPO 1408/1419 5SM -SN BKN008 OVC012 BECMG 1410/1412 30010KT FM141900 28010KT P6SM SCT020 BKN030 RMK NXT FCST BY 141400Z

Decode

Destination Runways

ID Width Length Bearing (true) Bearing (mag) Surface Threshold Offset Overrun Length
03 150 ft / 46 m 5,974 ft / 1,821 m 21.05° 31.55° Asphalt 0 ft / 0 m 0 ft / 0 m
10 150 ft / 46 m 4,897 ft / 1,493 m 91.19° 101.69° Asphalt 0 ft / 0 m 0 ft / 0 m
21 150 ft / 46 m 5,974 ft / 1,821 m 201.06° 211.56° Asphalt 0 ft / 0 m 0 ft / 0 m
28 150 ft / 46 m 4,897 ft / 1,493 m 271.20° 281.70° Asphalt 0 ft / 0 m 0 ft / 0 m

Approach Navaids

Runway Type Ident Frequency Range Bearing (true) Bearing (mag) Slope Elevation
03 Localiser ITS 109.70 MHz 18 nm / 33 km 21.13° 31.63° - 967 ft / 295 m (AMSL)
03 Glidescope ITS 109.70 MHz 10 nm / 19 km 21.06° 31.55° 3.00° 967 ft / 295 m (AMSL)

Popular Alternatives